createdAt,value
2018-12-07T00:01:29.840Z,13.30
2018-12-07T00:03:58.862Z,13.30
2018-12-07T00:06:27.598Z,13.30
2018-12-07T00:08:56.444Z,13.40
2018-12-07T00:11:25.190Z,13.40
2018-12-07T00:13:53.977Z,13.40
2018-12-07T00:16:22.660Z,13.40
2018-12-07T00:18:51.447Z,13.40
2018-12-07T00:21:19.963Z,13.40
2018-12-07T00:23:48.721Z,13.40
2018-12-07T00:26:17.442Z,13.40
2018-12-07T00:28:46.036Z,13.40
2018-12-07T00:31:14.763Z,13.40
2018-12-07T00:33:43.414Z,13.40
2018-12-07T00:36:12.141Z,13.40
2018-12-07T00:38:41.018Z,13.40
2018-12-07T00:41:09.704Z,13.40
2018-12-07T00:43:38.270Z,13.50
2018-12-07T00:46:06.771Z,13.50
2018-12-07T00:48:35.586Z,13.40
2018-12-07T00:51:04.327Z,13.40
2018-12-07T00:53:33.165Z,13.40
2018-12-07T00:56:01.861Z,13.40
2018-12-07T00:58:30.509Z,13.40
2018-12-07T01:00:59.178Z,13.40
2018-12-07T01:03:27.924Z,13.40
2018-12-07T01:05:56.491Z,13.40
2018-12-07T01:08:25.673Z,13.40
2018-12-07T01:10:54.225Z,13.40
2018-12-07T01:13:23.048Z,13.40
2018-12-07T01:15:51.897Z,13.40
2018-12-07T01:18:20.559Z,13.30
2018-12-07T01:20:49.160Z,13.30
2018-12-07T01:23:17.788Z,13.30
2018-12-07T01:25:46.408Z,13.30
2018-12-07T01:28:15.028Z,13.30
2018-12-07T01:30:43.859Z,13.30
2018-12-07T01:33:12.677Z,13.30
2018-12-07T01:35:41.704Z,13.30
2018-12-07T01:38:10.527Z,13.30
2018-12-07T01:40:39.155Z,13.30
2018-12-07T01:43:07.911Z,13.30
2018-12-07T01:45:36.570Z,13.30
2018-12-07T01:48:05.331Z,13.40
2018-12-07T01:50:34.062Z,13.40
2018-12-07T01:53:02.588Z,13.40
2018-12-07T01:55:31.345Z,13.40
2018-12-07T01:58:00.184Z,13.40
2018-12-07T02:00:28.969Z,13.40
2018-12-07T02:02:57.698Z,13.40
2018-12-07T02:05:26.380Z,13.40
2018-12-07T02:07:54.977Z,13.40
2018-12-07T02:10:23.588Z,13.40
2018-12-07T02:12:52.257Z,13.40
2018-12-07T02:15:20.870Z,13.40
2018-12-07T02:17:49.577Z,13.50
2018-12-07T02:20:18.155Z,13.50
2018-12-07T02:22:46.992Z,13.50
2018-12-07T02:25:15.866Z,13.50
2018-12-07T02:27:49.697Z,13.50
2018-12-07T02:30:18.452Z,13.50
2018-12-07T02:32:47.002Z,13.40
2018-12-07T02:35:15.630Z,13.40
2018-12-07T02:37:44.217Z,13.40
2018-12-07T02:40:12.920Z,13.40
2018-12-07T02:42:41.549Z,13.30
2018-12-07T02:45:10.184Z,13.40
2018-12-07T02:47:40.419Z,13.40
2018-12-07T02:50:09.375Z,13.30
2018-12-07T02:52:37.967Z,13.30
2018-12-07T02:55:07.630Z,13.40
2018-12-07T02:57:36.248Z,13.30
2018-12-07T03:00:06.129Z,13.30
2018-12-07T03:02:34.914Z,13.30
2018-12-07T03:05:03.563Z,13.20
2018-12-07T03:07:32.322Z,13.20
2018-12-07T03:10:01.005Z,13.20
2018-12-07T03:12:29.553Z,13.20
2018-12-07T03:14:58.239Z,13.20
2018-12-07T03:17:26.826Z,13.20
2018-12-07T03:19:55.604Z,13.20
2018-12-07T03:22:24.187Z,13.20
2018-12-07T03:24:52.723Z,13.20
2018-12-07T03:27:21.530Z,13.20
2018-12-07T03:29:50.405Z,13.20
2018-12-07T03:32:19.198Z,13.20
2018-12-07T03:34:47.776Z,13.20
2018-12-07T03:37:16.518Z,13.30
2018-12-07T03:39:45.278Z,13.30
2018-12-07T03:42:14.108Z,13.30
2018-12-07T03:44:42.705Z,13.30
2018-12-07T03:47:11.420Z,13.30
2018-12-07T03:49:39.989Z,13.30
2018-12-07T03:52:08.698Z,13.30
2018-12-07T03:54:37.599Z,13.30
2018-12-07T03:57:06.318Z,13.30
2018-12-07T03:59:35.040Z,13.30
2018-12-07T04:02:04.126Z,13.30
2018-12-07T04:04:32.792Z,13.30
2018-12-07T04:07:01.352Z,13.30
2018-12-07T04:09:30.305Z,13.40
2018-12-07T04:11:58.899Z,13.30
2018-12-07T04:14:27.786Z,13.30
2018-12-07T04:16:56.392Z,13.30
2018-12-07T04:19:25.278Z,13.30
2018-12-07T04:21:54.080Z,13.30
2018-12-07T04:24:22.759Z,13.30
2018-12-07T04:26:51.324Z,13.30
2018-12-07T04:29:20.030Z,13.30
2018-12-07T04:31:48.785Z,13.30
2018-12-07T04:34:17.804Z,13.20
2018-12-07T04:36:46.346Z,13.30
2018-12-07T04:39:15.058Z,13.30
2018-12-07T04:41:44.670Z,13.20
2018-12-07T04:44:13.297Z,13.20
2018-12-07T04:46:41.986Z,13.30
2018-12-07T04:49:10.830Z,13.30
2018-12-07T04:51:39.508Z,13.20
2018-12-07T04:54:08.207Z,13.30
2018-12-07T04:56:36.987Z,13.30
2018-12-07T04:59:05.650Z,13.20
2018-12-07T05:01:34.459Z,13.30
2018-12-07T05:04:03.177Z,13.30
2018-12-07T05:06:31.961Z,13.30
2018-12-07T05:09:00.748Z,13.30
2018-12-07T05:11:29.642Z,13.30
2018-12-07T05:13:58.430Z,13.30
2018-12-07T05:16:27.226Z,13.30
2018-12-07T05:18:56.000Z,13.30
2018-12-07T05:21:24.677Z,13.30
2018-12-07T05:23:53.227Z,13.30
2018-12-07T05:26:22.066Z,13.30
2018-12-07T05:28:50.832Z,13.20
2018-12-07T05:31:19.651Z,13.20
2018-12-07T05:33:48.330Z,13.20
2018-12-07T05:36:16.965Z,13.10
2018-12-07T05:38:45.557Z,13.10
2018-12-07T05:41:14.232Z,13.10
2018-12-07T05:43:54.152Z,13.10
2018-12-07T05:46:22.916Z,13.00
2018-12-07T05:48:51.690Z,13.00
2018-12-07T05:51:20.393Z,13.00
2018-12-07T05:53:49.923Z,13.00
2018-12-07T05:56:18.783Z,13.00
2018-12-07T05:58:47.447Z,13.00
2018-12-07T06:01:16.226Z,13.00
2018-12-07T06:03:45.019Z,13.00
2018-12-07T06:06:13.829Z,13.00
2018-12-07T06:08:42.607Z,13.00
2018-12-07T06:11:11.356Z,13.00
2018-12-07T06:13:39.975Z,13.10
2018-12-07T06:16:08.564Z,13.10
2018-12-07T06:18:37.570Z,13.10
2018-12-07T06:21:06.318Z,13.10
2018-12-07T06:23:35.070Z,13.10
2018-12-07T06:26:03.740Z,13.10
2018-12-07T06:28:32.688Z,13.10
2018-12-07T06:31:01.366Z,13.10
2018-12-07T06:33:30.194Z,13.10
2018-12-07T06:35:58.836Z,13.20
2018-12-07T06:38:27.613Z,13.10
2018-12-07T06:40:56.372Z,13.10
2018-12-07T06:43:24.941Z,13.10
2018-12-07T06:45:53.504Z,13.10
2018-12-07T06:48:22.014Z,13.20
2018-12-07T06:50:50.668Z,13.10
2018-12-07T06:53:19.543Z,13.10
2018-12-07T06:55:48.235Z,13.10
2018-12-07T06:58:16.954Z,13.10
2018-12-07T07:00:45.713Z,13.10
2018-12-07T07:03:14.549Z,13.10
2018-12-07T07:05:43.455Z,13.10
2018-12-07T07:08:12.213Z,13.10
2018-12-07T07:10:40.990Z,13.10
2018-12-07T07:13:09.812Z,13.00
2018-12-07T07:15:38.346Z,13.00
2018-12-07T07:18:06.930Z,13.00
2018-12-07T07:20:35.455Z,13.00
2018-12-07T07:23:04.158Z,12.90
2018-12-07T07:25:33.129Z,12.90
2018-12-07T07:28:01.767Z,12.90
2018-12-07T07:30:30.302Z,12.90
2018-12-07T07:32:58.861Z,12.90
2018-12-07T07:35:27.584Z,12.80
2018-12-07T07:37:56.895Z,12.80
2018-12-07T07:40:25.457Z,12.80
2018-12-07T07:42:54.122Z,12.80
2018-12-07T07:45:22.816Z,12.80
2018-12-07T07:47:51.514Z,12.80
2018-12-07T07:50:20.217Z,12.80
2018-12-07T07:52:48.952Z,12.70
2018-12-07T07:55:17.554Z,12.70
2018-12-07T07:57:46.145Z,12.70
2018-12-07T08:00:14.826Z,12.70
2018-12-07T08:02:43.592Z,12.70
2018-12-07T08:05:12.376Z,12.70
2018-12-07T08:07:41.286Z,12.70
2018-12-07T08:10:10.569Z,12.60
2018-12-07T08:12:39.269Z,12.60
2018-12-07T08:15:08.089Z,12.60
2018-12-07T08:17:36.836Z,12.60
2018-12-07T08:20:06.137Z,12.60
2018-12-07T08:22:35.728Z,12.60
2018-12-07T08:25:05.172Z,12.60
2018-12-07T08:27:33.837Z,12.50
2018-12-07T08:30:02.669Z,12.50
2018-12-07T08:32:32.053Z,12.50
2018-12-07T08:35:00.672Z,12.50
2018-12-07T08:37:29.389Z,12.50
2018-12-07T08:39:57.993Z,12.50
2018-12-07T08:42:26.739Z,12.50
2018-12-07T08:44:55.378Z,12.50
2018-12-07T08:47:24.121Z,12.50
2018-12-07T08:49:55.929Z,12.50
2018-12-07T08:52:24.910Z,12.50
2018-12-07T08:54:53.582Z,12.50
2018-12-07T08:57:22.470Z,12.50
2018-12-07T08:59:51.098Z,12.50
2018-12-07T09:02:19.883Z,12.50
2018-12-07T09:04:48.551Z,12.50
2018-12-07T09:07:17.847Z,12.40
2018-12-07T09:09:46.544Z,12.40
2018-12-07T09:12:15.497Z,12.40
2018-12-07T09:14:44.154Z,12.40
2018-12-07T09:17:12.822Z,12.40
2018-12-07T09:19:41.610Z,12.40
2018-12-07T09:22:10.372Z,12.30
2018-12-07T09:24:39.158Z,12.30
2018-12-07T09:27:07.974Z,12.30
2018-12-07T09:29:36.671Z,12.30
2018-12-07T09:32:05.213Z,12.30
2018-12-07T09:34:34.001Z,12.30
2018-12-07T09:37:02.657Z,12.30
2018-12-07T09:39:31.493Z,12.30
2018-12-07T09:42:00.288Z,12.30
2018-12-07T09:44:29.074Z,12.30
2018-12-07T09:46:57.659Z,12.30
2018-12-07T09:49:26.366Z,12.30
2018-12-07T09:51:55.062Z,12.30
2018-12-07T09:54:23.625Z,12.30
2018-12-07T09:56:52.432Z,12.30
2018-12-07T09:59:21.176Z,12.40
2018-12-07T10:01:49.797Z,12.40
2018-12-07T10:04:18.599Z,12.50
2018-12-07T10:06:47.319Z,12.50
2018-12-07T10:09:16.119Z,12.50
2018-12-07T10:11:44.705Z,12.40
2018-12-07T10:14:13.527Z,12.40
2018-12-07T10:16:42.232Z,12.40
2018-12-07T10:19:10.965Z,12.40
2018-12-07T10:21:39.553Z,12.40
2018-12-07T10:24:08.432Z,12.40
2018-12-07T10:26:37.144Z,12.30
2018-12-07T10:29:05.819Z,12.30
2018-12-07T10:31:34.433Z,12.20
2018-12-07T10:34:03.031Z,12.10
2018-12-07T10:36:31.840Z,12.00
2018-12-07T10:39:00.910Z,12.00
2018-12-07T10:41:29.759Z,11.90
2018-12-07T10:43:58.546Z,11.90
2018-12-07T10:46:27.129Z,11.90
2018-12-07T10:48:55.858Z,11.80
2018-12-07T10:51:24.538Z,11.80
2018-12-07T10:53:54.140Z,11.70
2018-12-07T10:56:22.747Z,11.70
2018-12-07T10:58:51.338Z,11.70
2018-12-07T11:01:25.326Z,11.70
2018-12-07T11:03:59.327Z,11.70
2018-12-07T11:06:33.260Z,11.60
2018-12-07T11:09:06.139Z,11.50
2018-12-07T11:11:40.447Z,11.50
2018-12-07T11:14:12.377Z,11.40
2018-12-07T11:16:46.893Z,11.40
2018-12-07T11:19:21.004Z,11.40
2018-12-07T11:21:54.793Z,11.40
2018-12-07T11:24:28.818Z,11.40
2018-12-07T11:27:02.688Z,11.40
2018-12-07T11:29:36.588Z,11.40
2018-12-07T11:32:10.441Z,11.40
2018-12-07T11:34:46.319Z,11.40
2018-12-07T11:37:15.399Z,11.30
2018-12-07T11:39:44.164Z,11.30
2018-12-07T11:42:12.767Z,11.30
2018-12-07T11:44:41.462Z,11.30
2018-12-07T11:47:10.268Z,11.30
2018-12-07T11:49:38.788Z,11.20
2018-12-07T11:52:07.420Z,11.20
2018-12-07T11:54:36.215Z,11.20
2018-12-07T11:57:05.011Z,11.10
2018-12-07T11:59:33.908Z,11.10
2018-12-07T12:02:02.648Z,11.10
2018-12-07T12:04:31.239Z,11.10
2018-12-07T12:06:59.963Z,11.10
2018-12-07T12:09:28.775Z,11.10
2018-12-07T12:11:57.553Z,11.10
2018-12-07T12:14:26.145Z,11.10
2018-12-07T12:16:54.874Z,11.10
2018-12-07T12:19:23.614Z,11.20
2018-12-07T12:21:52.339Z,11.20
2018-12-07T12:24:21.056Z,11.20
2018-12-07T12:26:49.978Z,11.20
2018-12-07T12:29:18.768Z,11.10
2018-12-07T12:31:47.408Z,11.10
2018-12-07T12:34:16.183Z,11.10
2018-12-07T12:36:44.902Z,11.10
2018-12-07T12:39:13.730Z,11.10
2018-12-07T12:41:46.673Z,11.10
2018-12-07T12:44:13.324Z,11.20
2018-12-07T12:46:42.146Z,11.20
2018-12-07T12:49:10.833Z,11.20
2018-12-07T12:51:39.846Z,11.20
2018-12-07T12:54:08.677Z,11.20
2018-12-07T12:56:37.398Z,11.20
2018-12-07T12:59:06.250Z,11.20
2018-12-07T13:01:35.010Z,11.30
2018-12-07T13:04:03.760Z,11.30
2018-12-07T13:06:32.321Z,11.20
2018-12-07T13:09:01.000Z,11.10
2018-12-07T13:11:29.552Z,11.00
2018-12-07T13:13:58.401Z,10.80
2018-12-07T13:16:27.195Z,10.80
2018-12-07T13:18:56.119Z,10.70
2018-12-07T13:21:24.768Z,10.70
2018-12-07T13:23:53.525Z,10.70
2018-12-07T13:26:22.327Z,10.70
2018-12-07T13:28:50.898Z,10.70
2018-12-07T13:31:19.595Z,10.70
2018-12-07T13:33:48.109Z,10.70
2018-12-07T13:36:16.954Z,10.70
2018-12-07T13:38:45.646Z,10.70
2018-12-07T13:41:14.331Z,10.70
2018-12-07T13:43:43.321Z,10.70
2018-12-07T13:46:12.415Z,10.70
2018-12-07T13:48:41.304Z,10.70
2018-12-07T13:51:10.223Z,10.80
2018-12-07T13:53:38.912Z,10.80
2018-12-07T13:56:07.997Z,10.90
2018-12-07T13:58:37.179Z,10.90
2018-12-07T14:01:06.101Z,11.00
2018-12-07T14:03:35.082Z,11.10
2018-12-07T14:06:03.877Z,11.10
2018-12-07T14:08:32.697Z,11.20
2018-12-07T14:11:01.657Z,11.20
2018-12-07T14:13:30.624Z,11.20
2018-12-07T14:15:59.747Z,11.20
2018-12-07T14:18:28.454Z,11.20
2018-12-07T14:20:57.043Z,11.20
2018-12-07T14:23:26.200Z,11.10
2018-12-07T14:25:54.933Z,11.10
2018-12-07T14:28:23.748Z,11.00
2018-12-07T14:30:52.602Z,10.90
2018-12-07T14:33:21.339Z,10.90
2018-12-07T14:35:50.116Z,10.80
2018-12-07T14:38:18.961Z,10.80
2018-12-07T14:40:48.088Z,10.80
2018-12-07T14:43:16.895Z,10.70
2018-12-07T14:45:45.680Z,10.70
2018-12-07T14:48:14.505Z,10.70
2018-12-07T14:50:43.399Z,10.70
2018-12-07T14:53:12.413Z,10.70
2018-12-07T14:55:41.255Z,10.70
2018-12-07T14:58:10.404Z,10.70
2018-12-07T15:00:39.207Z,10.60
2018-12-07T15:03:08.224Z,10.60
2018-12-07T15:05:37.246Z,10.60
2018-12-07T15:08:06.233Z,10.60
2018-12-07T15:10:34.999Z,10.60
2018-12-07T15:13:04.126Z,10.60
2018-12-07T15:15:32.935Z,10.50
2018-12-07T15:18:01.637Z,10.50
2018-12-07T15:20:30.721Z,10.50
2018-12-07T15:22:59.732Z,10.50
2018-12-07T15:25:28.709Z,10.40
2018-12-07T15:27:57.677Z,10.30
2018-12-07T15:30:26.408Z,10.30
2018-12-07T15:32:55.560Z,10.30
2018-12-07T15:35:24.839Z,10.50
2018-12-07T15:37:53.757Z,10.50
2018-12-07T15:40:22.645Z,10.50
2018-12-07T15:42:51.377Z,10.50
2018-12-07T15:45:20.071Z,10.40
2018-12-07T15:47:48.693Z,10.30
2018-12-07T15:50:24.849Z,10.20
2018-12-07T15:52:48.188Z,10.20
2018-12-07T15:55:17.303Z,10.10
2018-12-07T15:57:46.247Z,10.00
2018-12-07T16:00:15.867Z,9.90
2018-12-07T16:02:44.938Z,9.90
2018-12-07T16:05:13.844Z,9.80
2018-12-07T16:07:42.827Z,9.80
2018-12-07T16:10:11.624Z,9.80
2018-12-07T16:12:40.366Z,9.70
2018-12-07T16:15:09.296Z,9.70
2018-12-07T16:17:38.247Z,9.70
2018-12-07T16:20:11.643Z,9.70
2018-12-07T16:22:40.696Z,9.70
2018-12-07T16:25:09.482Z,9.70
2018-12-07T16:27:38.366Z,9.70
2018-12-07T16:30:09.480Z,9.70
2018-12-07T16:32:38.830Z,9.70
2018-12-07T16:35:07.820Z,9.60
2018-12-07T16:37:36.715Z,9.60
2018-12-07T16:40:07.110Z,9.70
2018-12-07T16:42:36.035Z,9.60
2018-12-07T16:45:05.358Z,9.60
2018-12-07T16:47:34.192Z,9.60
2018-12-07T16:50:03.678Z,9.50
2018-12-07T16:52:32.353Z,9.50
2018-12-07T16:55:01.174Z,9.40
2018-12-07T16:57:30.311Z,9.40
2018-12-07T16:59:59.164Z,9.40
2018-12-07T17:02:28.174Z,9.40
2018-12-07T17:04:57.486Z,9.30
2018-12-07T17:07:26.401Z,9.40
2018-12-07T17:09:55.427Z,9.30
2018-12-07T17:12:24.850Z,9.40
2018-12-07T17:14:53.837Z,9.40
2018-12-07T17:17:23.235Z,9.30
2018-12-07T17:19:52.663Z,9.30
2018-12-07T17:22:21.501Z,9.20
2018-12-07T17:24:50.478Z,9.30
2018-12-07T17:27:19.280Z,9.30
2018-12-07T17:29:48.110Z,9.20
2018-12-07T17:32:16.788Z,9.20
2018-12-07T17:34:45.588Z,9.20
2018-12-07T17:37:14.372Z,9.10
2018-12-07T17:39:43.201Z,9.10
2018-12-07T17:42:12.158Z,9.10
2018-12-07T17:44:41.090Z,9.10
2018-12-07T17:47:09.936Z,9.10
2018-12-07T17:49:38.696Z,9.10
2018-12-07T17:52:07.922Z,9.10
2018-12-07T17:54:37.351Z,9.10
2018-12-07T17:57:06.454Z,9.20
2018-12-07T17:59:35.339Z,9.10
2018-12-07T18:02:04.150Z,9.00
2018-12-07T18:04:32.745Z,9.00
2018-12-07T18:07:01.597Z,8.90
2018-12-07T18:09:30.451Z,8.90
2018-12-07T18:11:59.327Z,8.90
2018-12-07T18:14:28.297Z,8.90
2018-12-07T18:16:57.181Z,8.80
2018-12-07T18:19:26.260Z,8.80
2018-12-07T18:21:55.760Z,8.80
2018-12-07T18:24:24.962Z,8.80
2018-12-07T18:26:53.972Z,8.80
2018-12-07T18:29:22.705Z,8.90
2018-12-07T18:31:51.509Z,8.80
2018-12-07T18:34:20.619Z,8.80
2018-12-07T18:36:50.052Z,8.90
2018-12-07T18:39:19.010Z,8.80
2018-12-07T18:41:48.239Z,8.80
2018-12-07T18:44:17.042Z,8.80
2018-12-07T18:46:45.773Z,8.80
2018-12-07T18:49:14.582Z,8.70
2018-12-07T18:51:43.555Z,8.70
2018-12-07T18:54:12.244Z,8.70
2018-12-07T18:56:41.302Z,8.60
2018-12-07T18:59:10.286Z,8.60
2018-12-07T19:01:39.404Z,8.60
2018-12-07T19:04:08.535Z,8.50
2018-12-07T19:06:37.458Z,8.50
2018-12-07T19:09:08.988Z,8.40
2018-12-07T19:11:37.887Z,8.40
2018-12-07T19:14:07.027Z,8.30
2018-12-07T19:16:35.783Z,8.40
2018-12-07T19:19:04.484Z,8.40
2018-12-07T19:21:33.289Z,8.50
2018-12-07T19:24:02.223Z,8.40
2018-12-07T19:26:31.370Z,8.30
2018-12-07T19:29:00.171Z,8.30
2018-12-07T19:31:29.207Z,8.30
2018-12-07T19:33:58.002Z,8.20
2018-12-07T19:36:27.076Z,8.20
2018-12-07T19:38:56.053Z,8.20
2018-12-07T19:41:25.097Z,8.10
2018-12-07T19:43:53.992Z,8.20
2018-12-07T19:46:22.904Z,8.20
2018-12-07T19:48:51.664Z,8.30
2018-12-07T19:51:20.672Z,8.20
2018-12-07T19:53:49.856Z,8.20
2018-12-07T19:56:18.676Z,8.20
2018-12-07T19:58:47.737Z,8.10
2018-12-07T20:01:16.935Z,8.10
2018-12-07T20:03:45.801Z,8.10
2018-12-07T20:06:15.712Z,8.10
2018-12-07T20:08:44.954Z,8.10
2018-12-07T20:11:14.130Z,8.10
2018-12-07T20:13:43.211Z,8.10
2018-12-07T20:16:12.076Z,8.10
2018-12-07T20:18:41.280Z,8.00
2018-12-07T20:21:10.697Z,8.00
2018-12-07T20:23:39.723Z,7.90
2018-12-07T20:26:08.509Z,7.90
2018-12-07T20:28:37.625Z,8.00
2018-12-07T20:31:06.622Z,8.00
2018-12-07T20:33:35.921Z,8.10
2018-12-07T20:36:04.855Z,8.10
2018-12-07T20:38:33.898Z,8.00
2018-12-07T20:41:02.818Z,8.00
2018-12-07T20:43:31.649Z,8.00
2018-12-07T20:46:01.956Z,8.00
2018-12-07T20:48:31.282Z,8.00
2018-12-07T20:51:00.376Z,8.00
2018-12-07T20:53:29.513Z,8.00
2018-12-07T20:55:58.455Z,8.00
2018-12-07T20:58:27.415Z,8.00
2018-12-07T21:00:59.415Z,8.00
2018-12-07T21:04:36.668Z,8.00
2018-12-07T21:07:51.854Z,8.00
2018-12-07T21:11:07.927Z,8.00
2018-12-07T21:14:22.973Z,7.90
2018-12-07T21:17:32.790Z,7.90
2018-12-07T21:20:23.108Z,7.90
2018-12-07T21:22:53.399Z,7.90
2018-12-07T21:25:22.227Z,7.90
2018-12-07T21:27:51.128Z,7.90
2018-12-07T21:30:47.664Z,7.90
2018-12-07T21:33:18.884Z,7.90
2018-12-07T21:36:24.433Z,7.90
2018-12-07T21:38:53.614Z,7.90
2018-12-07T21:41:22.246Z,7.90
2018-12-07T21:43:51.456Z,7.90
2018-12-07T21:46:20.227Z,7.90
2018-12-07T21:48:48.995Z,7.90
2018-12-07T21:51:28.453Z,7.90
2018-12-07T21:53:57.218Z,7.90
2018-12-07T21:56:25.825Z,7.90
2018-12-07T21:58:54.948Z,7.90
2018-12-07T22:01:23.790Z,7.80
2018-12-07T22:03:53.032Z,7.80
2018-12-07T22:06:22.416Z,7.80
2018-12-07T22:08:51.250Z,7.80
2018-12-07T22:11:20.190Z,7.80
2018-12-07T22:13:49.409Z,7.80
2018-12-07T22:16:18.012Z,7.80
2018-12-07T22:18:47.029Z,7.80
2018-12-07T22:21:15.817Z,7.80
2018-12-07T22:23:45.138Z,7.80
2018-12-07T22:26:14.186Z,7.80
2018-12-07T22:28:42.788Z,7.80
2018-12-07T22:31:11.736Z,7.80
2018-12-07T22:33:40.762Z,7.80
2018-12-07T22:36:09.799Z,7.80
2018-12-07T22:38:38.907Z,7.90
2018-12-07T22:41:07.926Z,7.90
2018-12-07T22:43:36.855Z,7.90
2018-12-07T22:46:06.036Z,7.90
2018-12-07T22:48:34.912Z,7.90
2018-12-07T22:51:07.447Z,7.90
2018-12-07T22:53:37.188Z,7.90
2018-12-07T22:56:05.954Z,7.90
2018-12-07T22:58:34.658Z,7.90
2018-12-07T23:01:03.722Z,7.90
2018-12-07T23:03:32.484Z,7.90
2018-12-07T23:06:01.110Z,8.00
2018-12-07T23:08:29.894Z,8.00
2018-12-07T23:10:58.882Z,8.00
2018-12-07T23:13:27.781Z,8.00
2018-12-07T23:15:56.731Z,8.00
2018-12-07T23:18:25.310Z,8.00
2018-12-07T23:20:53.861Z,8.00
2018-12-07T23:23:22.419Z,8.00
2018-12-07T23:25:51.327Z,8.00
2018-12-07T23:28:20.085Z,8.00
2018-12-07T23:30:48.697Z,8.10
2018-12-07T23:33:17.459Z,8.10
2018-12-07T23:35:46.068Z,8.10
2018-12-07T23:38:14.797Z,8.10
2018-12-07T23:40:43.548Z,8.10
2018-12-07T23:43:12.166Z,8.10
2018-12-07T23:45:40.948Z,8.10
2018-12-07T23:48:09.636Z,8.10
2018-12-07T23:50:38.220Z,8.10
2018-12-07T23:53:06.905Z,8.20
2018-12-07T23:55:35.619Z,8.20
2018-12-07T23:58:04.426Z,8.20
